Time;durP1;ratioP1;P1;durP2;ratioP2;P2;SDS_P1;SDS_P2;PMS_P1;PMS_P2;Temp;Humidity;BMP_temperature;BMP_pressure;BME280_temperature;BME280_humidity;BME280_pressure;Samples;Min_cycle;Max_cycle;Signal;HPM_P1;HPM_P2
2022/08/03 00:01:42;;;;;;;3.10;1.20;;;23.80;60.60;;;;;;4957223;28;20138;-81
2022/08/03 00:04:09;;;;;;;2.78;1.13;;;23.70;60.80;;;;;;4951879;28;20628;-81
2022/08/03 00:06:36;;;;;;;2.33;1.10;;;23.70;60.90;;;;;;4942658;28;20058;-82
2022/08/03 00:09:02;;;;;;;2.20;1.02;;;23.70;60.90;;;;;;4937206;28;20038;-81
2022/08/03 00:11:28;;;;;;;2.20;1.20;;;23.60;61.00;;;;;;4942379;28;20066;-81
2022/08/03 00:13:53;;;;;;;2.03;1.03;;;23.60;61.10;;;;;;4928821;28;20599;-81
2022/08/03 00:16:19;;;;;;;1.80;1.08;;;23.60;61.30;;;;;;4961105;28;20530;-81
2022/08/03 00:18:45;;;;;;;3.13;1.08;;;23.60;61.30;;;;;;4934968;28;20041;-81
2022/08/03 00:21:11;;;;;;;2.03;1.00;;;23.60;61.40;;;;;;4958309;28;20133;-82
2022/08/03 00:23:37;;;;;;;2.05;1.10;;;23.60;61.50;;;;;;4949289;28;20146;-81
2022/08/03 00:26:03;;;;;;;2.95;1.27;;;23.60;61.60;;;;;;4956734;28;20160;-81
2022/08/03 00:28:29;;;;;;;2.10;1.10;;;23.60;61.60;;;;;;4943833;28;20252;-81
2022/08/03 00:30:55;;;;;;;3.67;1.10;;;23.50;61.70;;;;;;4930200;28;20038;-81
2022/08/03 00:33:21;;;;;;;4.03;1.20;;;23.50;61.70;;;;;;4947813;28;20038;-81
2022/08/03 00:35:47;;;;;;;1.42;0.90;;;23.50;61.80;;;;;;4938814;28;20327;-81
2022/08/03 00:38:13;;;;;;;2.60;1.10;;;23.40;61.90;;;;;;4956527;28;20041;-81
2022/08/03 00:40:39;;;;;;;2.97;1.05;;;23.40;62.10;;;;;;4960018;28;20117;-81
2022/08/03 00:43:06;;;;;;;1.50;1.00;;;23.40;62.20;;;;;;4959505;28;20027;-81
2022/08/03 00:45:37;;;;;;;1.30;1.05;;;23.30;62.50;;;;;;4913075;28;20081;-81
2022/08/03 00:48:05;;;;;;;3.20;1.02;;;23.30;63.10;;;;;;4957753;28;20262;-81
2022/08/03 00:50:34;;;;;;;1.50;0.90;;;23.30;62.70;;;;;;4957837;28;20036;-81
2022/08/03 00:53:03;;;;;;;1.63;1.00;;;23.30;63.10;;;;;;4934293;28;20362;-81
2022/08/03 00:55:29;;;;;;;2.05;0.95;;;23.20;62.80;;;;;;4959749;28;20042;-81
2022/08/03 00:57:55;;;;;;;2.70;1.00;;;23.20;62.80;;;;;;4950467;28;20037;-81
2022/08/03 01:00:24;;;;;;;1.20;1.10;;;23.10;62.80;;;;;;4922999;28;20031;-81
2022/08/03 01:02:50;;;;;;;2.13;1.00;;;23.10;63.30;;;;;;4955869;28;20074;-81
2022/08/03 01:05:17;;;;;;;1.87;1.00;;;23.00;63.00;;;;;;4945805;28;20026;-81
2022/08/03 01:07:54;;;;;;;1.70;1.00;;;23.00;63.10;;;;;;4959791;28;20022;-81
2022/08/03 01:10:28;;;;;;;3.08;1.10;;;23.00;63.60;;;;;;4950582;28;20041;-81
2022/08/03 01:13:02;;;;;;;0.98;0.70;;;22.90;64.40;;;;;;4958087;28;20015;-81
2022/08/03 01:15:49;;;;;;;1.80;0.95;;;22.90;63.30;;;;;;4957240;28;20308;-81
2022/08/03 01:18:25;;;;;;;1.50;0.90;;;22.80;64.70;;;;;;4939254;28;20023;-80
2022/08/03 01:20:56;;;;;;;1.67;1.00;;;22.80;64.50;;;;;;4931363;28;20060;-81
2022/08/03 01:23:30;;;;;;;2.03;0.90;;;22.70;64.20;;;;;;4961796;28;20022;-81
2022/08/03 01:26:30;;;;;;;3.08;0.93;;;22.70;63.70;;;;;;4951762;28;20050;-81
2022/08/03 01:29:08;;;;;;;1.60;0.90;;;22.70;65.40;;;;;;4956339;28;20031;-81
2022/08/03 01:31:57;;;;;;;2.40;1.00;;;22.60;64.50;;;;;;4922544;28;20039;-81
2022/08/03 01:34:28;;;;;;;2.25;0.82;;;22.60;65.70;;;;;;4960381;28;20649;-81
2022/08/03 01:36:58;;;;;;;1.90;0.70;;;22.60;64.10;;;;;;4963967;28;20286;-81
2022/08/03 01:39:27;;;;;;;2.90;0.80;;;22.50;64.40;;;;;;4973125;28;20043;-81
2022/08/03 01:41:58;;;;;;;1.80;1.00;;;22.40;64.20;;;;;;4925989;28;20574;-81
2022/08/03 01:44:28;;;;;;;1.53;1.00;;;22.40;64.60;;;;;;4958343;28;20528;-81
2022/08/03 01:46:58;;;;;;;2.88;0.80;;;22.40;64.50;;;;;;4933369;28;20027;-81
2022/08/03 01:49:26;;;;;;;2.33;0.80;;;22.30;64.70;;;;;;4941446;28;20022;-81
2022/08/03 01:51:52;;;;;;;1.63;0.80;;;22.30;64.50;;;;;;4957857;28;20050;-81
2022/08/03 01:54:21;;;;;;;0.93;0.80;;;22.30;64.50;;;;;;4967557;28;20057;-81
2022/08/03 01:56:50;;;;;;;1.67;0.90;;;22.30;64.90;;;;;;4952275;28;20038;-81
2022/08/03 01:59:18;;;;;;;1.52;1.00;;;22.20;64.80;;;;;;4935311;28;20122;-81
2022/08/03 02:01:46;;;;;;;2.10;1.00;;;22.20;64.70;;;;;;4943713;28;20425;-81
2022/08/03 02:04:16;;;;;;;2.25;1.10;;;22.20;64.70;;;;;;4955348;28;20542;-81
2022/08/03 02:06:43;;;;;;;1.58;0.90;;;22.20;65.00;;;;;;4953154;28;20038;-81
2022/08/03 02:09:13;;;;;;;1.60;1.00;;;22.20;64.70;;;;;;4962341;28;20023;-81
2022/08/03 02:11:41;;;;;;;1.38;0.80;;;22.10;64.90;;;;;;4970487;28;20070;-81
2022/08/03 02:14:08;;;;;;;2.13;0.90;;;22.00;64.80;;;;;;4962377;28;20144;-81
2022/08/03 02:16:35;;;;;;;1.95;0.90;;;22.00;64.90;;;;;;4955610;28;20143;-81
2022/08/03 02:19:04;;;;;;;1.15;0.80;;;21.90;65.00;;;;;;4944396;28;20030;-80
2022/08/03 02:21:34;;;;;;;2.90;0.90;;;21.90;65.30;;;;;;4961014;28;20038;-80
2022/08/03 02:24:00;;;;;;;1.83;1.00;;;21.90;65.50;;;;;;4963232;28;20019;-81
2022/08/03 02:26:28;;;;;;;2.10;1.00;;;21.80;65.30;;;;;;4962334;28;20042;-81
2022/08/03 02:28:56;;;;;;;1.90;0.85;;;21.80;65.80;;;;;;4956507;28;20054;-81
2022/08/03 02:31:25;;;;;;;1.23;0.70;;;21.70;65.50;;;;;;4947336;28;20050;-81
2022/08/03 02:33:54;;;;;;;1.25;0.80;;;21.70;65.60;;;;;;4939748;28;20242;-81
2022/08/03 02:36:24;;;;;;;2.67;0.90;;;21.70;65.90;;;;;;4962598;28;20523;-81
2022/08/03 02:38:53;;;;;;;2.65;0.90;;;21.70;66.10;;;;;;4960114;28;20026;-81
2022/08/03 02:41:23;;;;;;;1.05;0.75;;;21.60;66.10;;;;;;4981389;28;20030;-81
2022/08/03 02:43:53;;;;;;;3.17;0.90;;;21.50;66.10;;;;;;4952747;28;20049;-81
2022/08/03 02:46:25;;;;;;;1.10;0.80;;;21.50;66.00;;;;;;4958523;28;20479;-81
2022/08/03 02:48:52;;;;;;;1.88;0.80;;;21.40;66.60;;;;;;4937174;28;20093;-81
2022/08/03 02:51:19;;;;;;;1.10;0.80;;;21.40;66.80;;;;;;4943215;28;20035;-81
2022/08/03 02:53:47;;;;;;;1.17;0.82;;;21.40;66.00;;;;;;4946297;28;20030;-81
2022/08/03 02:56:14;;;;;;;1.50;0.90;;;21.40;66.20;;;;;;4950669;28;20027;-81
2022/08/03 02:58:42;;;;;;;1.25;0.80;;;21.30;66.30;;;;;;4963011;28;20088;-81
2022/08/03 03:01:09;;;;;;;3.30;0.90;;;21.30;66.40;;;;;;4938681;28;20420;-81
2022/08/03 03:03:36;;;;;;;1.48;0.90;;;21.30;66.10;;;;;;4940887;28;20026;-80
2022/08/03 03:06:03;;;;;;;1.80;0.73;;;21.30;66.20;;;;;;4944476;28;20293;-81
2022/08/03 03:08:29;;;;;;;3.77;0.80;;;21.20;66.30;;;;;;4963145;28;20094;-81
2022/08/03 03:10:58;;;;;;;1.30;0.70;;;21.20;66.30;;;;;;4937486;28;20470;-81
2022/08/03 03:13:24;;;;;;;2.63;0.90;;;21.10;66.40;;;;;;4958583;28;20487;-81
2022/08/03 03:15:51;;;;;;;1.77;0.85;;;21.10;66.40;;;;;;4957303;28;20420;-81
2022/08/03 03:18:18;;;;;;;1.38;0.80;;;21.10;66.80;;;;;;4960250;28;20549;-80
2022/08/03 03:20:45;;;;;;;1.20;0.80;;;21.00;66.50;;;;;;4937184;28;20439;-81
2022/08/03 03:23:11;;;;;;;1.70;0.80;;;21.00;66.60;;;;;;4963398;28;20496;-81
2022/08/03 03:25:37;;;;;;;1.48;0.85;;;21.00;66.70;;;;;;4960131;28;20077;-81
2022/08/03 03:28:04;;;;;;;1.15;0.80;;;20.90;66.70;;;;;;4937692;28;20039;-81
2022/08/03 03:30:29;;;;;;;1.70;0.70;;;20.90;66.80;;;;;;4965869;28;20070;-81
2022/08/03 03:32:57;;;;;;;2.27;0.70;;;20.80;66.80;;;;;;4941623;28;20239;-81
2022/08/03 03:35:23;;;;;;;1.52;0.73;;;20.80;67.00;;;;;;4938047;28;20058;-80
2022/08/03 03:37:49;;;;;;;1.40;0.80;;;20.80;67.00;;;;;;4973235;28;20029;-80
2022/08/03 03:40:15;;;;;;;2.43;0.90;;;20.80;67.20;;;;;;4968264;28;20023;-81
2022/08/03 03:42:41;;;;;;;0.90;0.77;;;20.80;67.20;;;;;;4959817;28;20043;-81
2022/08/03 03:45:07;;;;;;;1.63;0.80;;;20.70;67.20;;;;;;4950569;28;20218;-81
2022/08/03 03:47:36;;;;;;;1.00;0.90;;;20.70;67.40;;;;;;4947620;28;20069;-80
2022/08/03 03:50:04;;;;;;;2.73;0.87;;;20.60;67.80;;;;;;4946787;28;21575;-80
2022/08/03 03:52:31;;;;;;;1.45;0.80;;;20.60;67.70;;;;;;4940583;28;20093;-80
2022/08/03 03:54:57;;;;;;;2.13;0.80;;;20.60;67.70;;;;;;4949194;28;20029;-80
2022/08/03 03:57:22;;;;;;;1.05;0.70;;;20.60;67.60;;;;;;4942012;28;20215;-81
2022/08/03 03:59:48;;;;;;;2.23;0.90;;;20.50;67.60;;;;;;4953280;28;20055;-80
2022/08/03 04:02:14;;;;;;;1.40;0.82;;;20.50;67.70;;;;;;4956602;28;20352;-80
2022/08/03 04:13:05;;;;;;;1.35;0.80;;;20.40;68.10;;;;;;4948586;28;20054;-80
2022/08/03 04:15:32;;;;;;;2.05;1.00;;;20.40;68.00;;;;;;4936879;28;20034;-80
2022/08/03 04:18:00;;;;;;;1.20;0.80;;;20.30;68.00;;;;;;4945005;28;20095;-80
2022/08/03 04:20:30;;;;;;;1.67;0.80;;;20.30;68.00;;;;;;4979815;28;20105;-80
2022/08/03 04:22:59;;;;;;;2.03;0.90;;;20.30;68.20;;;;;;4926015;28;20303;-80
2022/08/03 04:25:28;;;;;;;1.92;0.80;;;20.20;68.10;;;;;;4957449;28;20232;-80
2022/08/03 04:27:58;;;;;;;2.20;0.77;;;20.20;68.30;;;;;;4960119;28;20251;-81
2022/08/03 04:30:26;;;;;;;1.15;1.00;;;20.10;68.10;;;;;;4957730;28;20035;-80
2022/08/03 04:32:55;;;;;;;2.20;0.90;;;20.10;68.40;;;;;;4923874;28;20029;-80
2022/08/03 04:35:27;;;;;;;2.47;0.90;;;20.10;68.40;;;;;;4956743;28;20030;-81
2022/08/03 04:37:56;;;;;;;1.23;0.80;;;20.10;68.60;;;;;;4919599;28;20335;-80
2022/08/03 04:40:33;;;;;;;4.60;0.98;;;20.10;68.70;;;;;;4943667;28;20030;-80
2022/08/03 04:43:00;;;;;;;4.93;1.10;;;20.10;69.20;;;;;;4942663;28;20229;-81
2022/08/03 04:45:27;;;;;;;2.33;0.80;;;20.10;68.70;;;;;;4960619;28;20101;-81
2022/08/03 04:47:54;;;;;;;1.25;0.80;;;20.10;68.90;;;;;;4953396;28;20331;-80
2022/08/03 04:50:20;;;;;;;1.48;0.90;;;20.10;69.00;;;;;;4949311;28;20043;-80
2022/08/03 04:52:47;;;;;;;2.03;0.80;;;20.10;69.20;;;;;;4931096;28;20491;-80
2022/08/03 04:55:28;;;;;;;2.22;0.80;;;20.10;69.20;;;;;;4958862;28;20066;-80
2022/08/03 04:57:54;;;;;;;2.00;0.73;;;20.10;70.40;;;;;;4949038;28;20132;-81
2022/08/03 05:00:20;;;;;;;1.65;0.80;;;20.10;69.20;;;;;;4956909;28;20019;-80
2022/08/03 05:02:45;;;;;;;1.30;0.80;;;20.10;69.40;;;;;;4914799;28;20247;-81
2022/08/03 05:05:11;;;;;;;1.80;0.80;;;20.10;69.50;;;;;;4968557;28;20075;-80
2022/08/03 05:07:37;;;;;;;2.25;0.77;;;20.10;69.50;;;;;;4922150;28;20952;-80
2022/08/03 05:10:06;;;;;;;1.38;0.70;;;20.10;69.60;;;;;;4928087;28;20027;-80
2022/08/03 05:12:31;;;;;;;1.00;0.70;;;20.10;69.90;;;;;;4963678;28;20062;-81
2022/08/03 05:14:57;;;;;;;1.43;0.73;;;20.10;69.90;;;;;;4955488;28;20459;-81
2022/08/03 05:17:22;;;;;;;1.83;0.60;;;20.10;69.90;;;;;;4949765;28;20479;-80
2022/08/03 05:19:48;;;;;;;2.13;0.80;;;20.10;70.00;;;;;;4951828;28;20015;-81
2022/08/03 05:22:14;;;;;;;1.88;0.70;;;20.20;70.20;;;;;;4951486;28;20134;-80
2022/08/03 05:24:40;;;;;;;1.07;0.70;;;20.20;70.30;;;;;;4928781;28;20039;-81
2022/08/03 05:27:05;;;;;;;1.10;0.70;;;20.20;70.40;;;;;;4945238;28;20035;-81
2022/08/03 05:29:31;;;;;;;1.10;0.70;;;20.20;70.50;;;;;;4955698;28;20027;-80
2022/08/03 05:31:57;;;;;;;2.50;0.70;;;20.30;70.60;;;;;;4964382;28;20038;-81
2022/08/03 05:34:22;;;;;;;1.77;0.80;;;20.30;70.80;;;;;;4934146;28;20018;-81
2022/08/03 05:36:48;;;;;;;1.77;0.80;;;20.40;71.00;;;;;;4943549;28;20225;-81
2022/08/03 05:39:14;;;;;;;1.53;0.80;;;20.40;71.00;;;;;;4940380;28;20046;-81
2022/08/03 05:41:40;;;;;;;2.67;0.80;;;20.40;71.30;;;;;;4930135;28;20438;-81
2022/08/03 05:44:05;;;;;;;2.80;0.98;;;20.50;72.00;;;;;;4933984;28;20592;-81
2022/08/03 05:46:31;;;;;;;1.60;0.70;;;20.50;71.30;;;;;;4966673;28;20446;-81
2022/08/03 05:48:57;;;;;;;2.10;0.82;;;20.60;71.40;;;;;;4953708;28;20041;-81
2022/08/03 05:51:22;;;;;;;2.00;0.90;;;20.60;71.60;;;;;;4945302;28;20023;-81
2022/08/03 05:53:48;;;;;;;1.80;0.80;;;20.70;71.70;;;;;;4936502;28;20082;-81
2022/08/03 05:56:14;;;;;;;1.70;0.87;;;20.80;71.90;;;;;;4925428;28;20086;-81
2022/08/03 05:58:39;;;;;;;1.77;0.98;;;20.80;71.90;;;;;;4942244;28;20271;-81
2022/08/03 06:01:05;;;;;;;1.40;0.80;;;20.90;72.10;;;;;;4949848;28;20027;-81
2022/08/03 06:03:31;;;;;;;1.92;0.88;;;21.00;72.20;;;;;;4935850;28;20031;-81
2022/08/03 06:05:57;;;;;;;2.57;0.90;;;21.10;72.30;;;;;;4955152;28;20038;-81
2022/08/03 06:08:23;;;;;;;1.65;0.80;;;21.20;72.30;;;;;;4935998;28;20066;-80
2022/08/03 06:10:49;;;;;;;1.98;0.77;;;21.20;72.30;;;;;;4926277;28;20449;-81
2022/08/03 06:13:15;;;;;;;2.50;0.93;;;21.30;72.50;;;;;;4953667;28;20038;-81
2022/08/03 06:15:41;;;;;;;2.38;1.10;;;21.40;73.10;;;;;;4956278;28;20407;-81
2022/08/03 06:18:07;;;;;;;2.67;1.00;;;21.50;72.50;;;;;;4936435;28;20181;-81
2022/08/03 06:20:33;;;;;;;3.57;1.00;;;21.60;72.70;;;;;;4929255;28;20554;-81
2022/08/03 06:22:59;;;;;;;3.83;0.95;;;21.70;72.70;;;;;;4953721;28;20181;-81
2022/08/03 06:25:25;;;;;;;2.33;0.85;;;21.70;72.70;;;;;;4922151;28;20074;-81
2022/08/03 06:27:51;;;;;;;3.20;1.00;;;21.80;72.70;;;;;;4956975;28;20504;-82
2022/08/03 06:30:17;;;;;;;2.47;0.90;;;21.90;72.80;;;;;;4957484;28;20030;-81
2022/08/03 06:32:44;;;;;;;2.88;1.10;;;22.00;72.80;;;;;;4965162;28;20563;-82
2022/08/03 06:35:09;;;;;;;3.07;1.53;;;22.10;72.90;;;;;;4944956;28;20503;-81
2022/08/03 06:37:46;;;;;;;2.03;0.90;;;22.20;72.70;;;;;;4928989;28;20260;-81
2022/08/03 06:40:13;;;;;;;2.40;1.00;;;22.30;73.20;;;;;;4952847;28;20495;-81
2022/08/03 06:42:39;;;;;;;3.60;0.80;;;22.40;72.70;;;;;;4924126;28;20035;-81
2022/08/03 06:45:07;;;;;;;3.22;0.95;;;22.50;72.70;;;;;;4937865;28;20387;-82
2022/08/03 06:47:37;;;;;;;1.95;0.90;;;22.60;72.70;;;;;;4956583;28;20046;-81
2022/08/03 06:50:08;;;;;;;2.75;0.95;;;22.70;72.70;;;;;;4950599;28;20555;-81
2022/08/03 06:52:34;;;;;;;4.00;1.00;;;22.80;72.90;;;;;;4941997;28;20090;-82
2022/08/03 06:55:04;;;;;;;1.47;0.80;;;22.90;72.80;;;;;;4944768;28;20028;-81
2022/08/03 06:57:30;;;;;;;2.97;0.80;;;23.00;72.80;;;;;;4920027;28;20031;-81
2022/08/03 07:00:00;;;;;;;2.15;1.05;;;23.20;72.70;;;;;;4953870;28;21194;-81
2022/08/03 07:02:27;;;;;;;2.90;0.83;;;23.20;72.70;;;;;;4932006;28;20085;-81
2022/08/03 07:04:53;;;;;;;1.70;0.80;;;23.30;72.70;;;;;;4952895;28;20027;-81
2022/08/03 07:07:19;;;;;;;5.65;1.05;;;23.50;72.60;;;;;;4947596;28;20042;-81
2022/08/03 07:09:46;;;;;;;3.43;0.87;;;23.60;72.60;;;;;;4950332;28;20090;-81
2022/08/03 07:12:12;;;;;;;3.50;0.90;;;23.70;72.60;;;;;;4961111;28;20054;-81
2022/08/03 07:14:38;;;;;;;1.55;0.90;;;23.80;72.40;;;;;;4943716;28;20029;-79
2022/08/03 07:17:04;;;;;;;2.77;1.00;;;23.90;72.30;;;;;;4970627;28;20023;-78
2022/08/03 07:19:29;;;;;;;2.58;0.95;;;24.10;72.20;;;;;;4934176;28;20098;-81
2022/08/03 07:21:55;;;;;;;2.85;0.90;;;24.20;71.90;;;;;;4959332;28;20022;-81
2022/08/03 07:24:21;;;;;;;2.17;0.93;;;24.40;71.70;;;;;;4951403;28;20034;-82
2022/08/03 07:26:47;;;;;;;2.90;1.00;;;24.50;71.50;;;;;;4968804;28;20050;-82
2022/08/03 07:29:13;;;;;;;1.67;1.00;;;24.60;71.20;;;;;;4941786;28;20442;-81
2022/08/03 07:31:38;;;;;;;3.80;0.90;;;24.80;71.10;;;;;;4971419;28;20054;-82
2022/08/03 07:34:04;;;;;;;2.97;0.80;;;24.90;70.80;;;;;;4977094;28;20622;-81
2022/08/03 07:36:31;;;;;;;3.00;0.73;;;25.00;70.50;;;;;;4946100;28;20545;-82
2022/08/03 07:38:57;;;;;;;1.60;0.75;;;25.20;70.40;;;;;;4930075;28;20215;-81
2022/08/03 07:41:23;;;;;;;1.80;0.80;;;25.30;70.20;;;;;;4942080;28;20019;-82
2022/08/03 07:43:48;;;;;;;1.33;0.77;;;25.40;69.80;;;;;;4949189;28;20347;-83
2022/08/03 07:46:14;;;;;;;2.20;0.80;;;25.50;69.70;;;;;;4916212;28;20473;-81
2022/08/03 07:48:40;;;;;;;3.77;0.90;;;25.60;69.50;;;;;;4942910;28;20366;-82
2022/08/03 07:51:05;;;;;;;2.38;1.00;;;25.80;69.30;;;;;;4940949;28;20041;-81
2022/08/03 07:53:31;;;;;;;2.53;1.00;;;25.90;69.00;;;;;;4959200;28;20832;-81
2022/08/03 07:55:57;;;;;;;1.83;0.93;;;26.00;68.90;;;;;;4943854;28;20051;-82
2022/08/03 07:58:23;;;;;;;3.83;1.00;;;26.10;68.90;;;;;;4960652;28;20050;-82
2022/08/03 08:00:52;;;;;;;3.55;1.00;;;26.30;68.70;;;;;;4936785;28;20037;-81
2022/08/03 08:03:18;;;;;;;2.92;1.02;;;26.50;68.60;;;;;;4939532;28;20086;-81
2022/08/03 08:05:44;;;;;;;2.65;0.93;;;26.70;68.60;;;;;;4944765;28;20038;-81
2022/08/03 08:08:10;;;;;;;3.73;1.00;;;26.80;68.40;;;;;;4946974;28;20054;-82
2022/08/03 08:10:36;;;;;;;4.93;1.17;;;27.00;68.50;;;;;;4939936;28;20030;-82
2022/08/03 08:13:03;;;;;;;2.45;0.85;;;27.30;68.60;;;;;;4927961;28;20126;-82
2022/08/03 08:15:29;;;;;;;4.03;1.05;;;27.50;68.50;;;;;;4928390;28;20595;-82
2022/08/03 08:17:57;;;;;;;2.25;0.95;;;27.80;68.90;;;;;;4953619;28;20026;-81
2022/08/03 08:20:26;;;;;;;3.60;1.03;;;28.10;69.50;;;;;;4932670;28;20049;-81
2022/08/03 08:22:53;;;;;;;3.08;0.90;;;28.50;69.80;;;;;;4974803;28;20069;-79
2022/08/03 08:25:19;;;;;;;1.77;0.90;;;28.90;69.70;;;;;;4942206;28;20047;-78
2022/08/03 08:27:48;;;;;;;5.00;1.30;;;29.30;69.50;;;;;;4978098;28;20022;-77
2022/08/03 08:30:15;;;;;;;3.85;0.90;;;29.80;69.20;;;;;;4943111;28;20041;-79
2022/08/03 08:32:41;;;;;;;3.40;1.30;;;30.40;69.30;;;;;;4969479;28;20026;-78
2022/08/03 08:35:08;;;;;;;3.40;1.00;;;30.90;68.60;;;;;;4961569;28;20109;-78
2022/08/03 08:37:34;;;;;;;2.80;1.10;;;31.40;67.50;;;;;;4952366;28;20284;-80
2022/08/03 08:40:00;;;;;;;2.17;1.10;;;31.90;66.20;;;;;;4942644;28;20118;-78
2022/08/03 08:42:26;;;;;;;4.03;1.08;;;32.40;65.50;;;;;;4940429;28;22253;-79
2022/08/03 08:44:52;;;;;;;2.05;1.17;;;32.80;64.70;;;;;;4962615;28;20022;-80
2022/08/03 08:47:28;;;;;;;2.87;1.30;;;33.40;64.50;;;;;;4930309;28;20376;-79
2022/08/03 08:49:54;;;;;;;3.17;1.50;;;33.80;60.60;;;;;;4936707;28;20026;-79
2022/08/03 08:52:24;;;;;;;3.03;1.30;;;34.20;60.70;;;;;;4963770;28;20263;-80
2022/08/03 08:54:54;;;;;;;2.80;1.58;;;34.60;59.10;;;;;;4958446;28;20133;-80
2022/08/03 08:57:24;;;;;;;3.78;1.30;;;34.80;58.10;;;;;;4933192;28;20015;-79
2022/08/03 08:59:50;;;;;;;4.27;1.47;;;35.10;57.20;;;;;;4957320;28;20494;-79
2022/08/03 09:02:16;;;;;;;4.55;1.20;;;35.30;56.80;;;;;;4932482;28;20766;-79
2022/08/03 09:04:44;;;;;;;2.63;1.30;;;35.70;56.60;;;;;;4964844;28;20113;-80
2022/08/03 09:07:10;;;;;;;3.38;1.42;;;35.90;56.10;;;;;;4926398;28;21325;-79
2022/08/03 09:09:35;;;;;;;5.07;1.40;;;36.20;55.50;;;;;;4961472;28;20031;-80
2022/08/03 09:12:01;;;;;;;3.22;1.50;;;36.60;55.00;;;;;;4934735;28;20147;-79
2022/08/03 09:14:29;;;;;;;4.43;1.60;;;36.80;52.90;;;;;;4958239;28;20035;-79
2022/08/03 09:17:03;;;;;;;3.67;1.60;;;37.10;51.90;;;;;;4961822;28;20026;-79
2022/08/03 09:19:30;;;;;;;4.07;1.50;;;37.30;51.90;;;;;;4926555;28;20795;-80
2022/08/03 09:22:17;;;;;;;3.67;1.20;;;37.50;50.00;;;;;;4956605;28;20019;-80
2022/08/03 09:24:57;;;;;;;3.78;1.75;;;37.70;45.40;;;;;;4961107;28;20068;-80
2022/08/03 09:27:23;;;;;;;4.05;1.80;;;37.90;47.20;;;;;;4944428;28;20112;-79
2022/08/03 09:29:53;;;;;;;3.20;1.47;;;37.90;48.40;;;;;;4947702;28;20135;-81
2022/08/03 09:32:23;;;;;;;2.88;1.70;;;38.10;47.00;;;;;;4958408;28;20046;-80
2022/08/03 09:34:51;;;;;;;3.28;1.65;;;38.10;46.30;;;;;;4930754;28;20331;-79
2022/08/03 09:37:19;;;;;;;2.47;1.50;;;38.20;46.00;;;;;;4933791;28;20092;-80
2022/08/03 09:39:46;;;;;;;2.70;1.70;;;38.30;45.70;;;;;;4965478;28;20224;-80
2022/08/03 09:42:17;;;;;;;2.97;1.50;;;38.40;45.60;;;;;;4961078;28;20035;-80
2022/08/03 09:44:46;;;;;;;5.03;1.70;;;38.40;44.80;;;;;;4937014;28;20050;-80
2022/08/03 09:47:13;;;;;;;3.55;1.48;;;38.60;44.70;;;;;;4951957;28;20030;-80
2022/08/03 09:49:41;;;;;;;2.78;1.50;;;38.70;44.50;;;;;;4929435;28;20444;-79
2022/08/03 09:52:15;;;;;;;3.43;2.10;;;38.80;44.30;;;;;;4923620;28;20043;-79
2022/08/03 09:54:42;;;;;;;4.18;1.40;;;39.00;43.20;;;;;;4957055;28;20223;-79
2022/08/03 09:57:18;;;;;;;3.67;1.63;;;39.00;44.40;;;;;;4953394;28;20022;-80
2022/08/03 09:59:44;;;;;;;2.50;1.75;;;39.20;43.50;;;;;;4950981;28;20086;-80
2022/08/03 10:02:24;;;;;;;3.13;1.73;;;39.30;43.50;;;;;;4945854;28;20184;-80
2022/08/03 10:04:51;;;;;;;3.47;1.55;;;39.50;42.10;;;;;;4939056;28;20407;-79
2022/08/03 10:07:21;;;;;;;4.82;1.80;;;39.50;43.00;;;;;;4936634;28;20015;-80
2022/08/03 10:09:57;;;;;;;2.63;2.00;;;39.80;42.70;;;;;;4967804;28;20315;-80
2022/08/03 10:12:23;;;;;;;3.47;1.80;;;40.00;40.80;;;;;;4961226;28;20027;-79
2022/08/03 10:14:51;;;;;;;3.55;2.10;;;40.30;42.30;;;;;;4957635;28;20849;-79
2022/08/03 10:17:17;;;;;;;3.35;2.15;;;40.50;41.10;;;;;;4960317;28;20015;-80
2022/08/03 10:19:43;;;;;;;2.90;1.83;;;40.60;40.70;;;;;;4940424;28;20023;-81
2022/08/03 10:22:11;;;;;;;2.53;2.20;;;40.70;40.40;;;;;;4933178;28;20026;-79
2022/08/03 10:24:39;;;;;;;3.97;2.30;;;40.70;39.50;;;;;;4950914;28;20263;-79
2022/08/03 10:27:06;;;;;;;2.45;1.98;;;40.80;39.60;;;;;;4961795;28;20110;-80
2022/08/03 10:29:44;;;;;;;2.40;1.92;;;40.90;39.60;;;;;;4944647;28;20107;-80
2022/08/03 10:32:17;;;;;;;4.28;2.45;;;41.00;38.00;;;;;;4984130;28;20041;-82
2022/08/03 10:34:45;;;;;;;2.95;2.15;;;41.10;38.10;;;;;;4935603;28;20570;-84
2022/08/03 10:37:13;;;;;;;2.67;2.10;;;41.30;38.80;;;;;;4930906;28;20030;-83
2022/08/03 10:39:52;;;;;;;3.45;2.00;;;41.40;38.50;;;;;;4978594;28;20124;-84
2022/08/03 10:42:27;;;;;;;2.42;2.05;;;41.50;38.30;;;;;;4961719;28;20034;-84
2022/08/03 10:45:01;;;;;;;4.30;2.15;;;41.50;36.70;;;;;;4957139;28;20033;-83
2022/08/03 10:47:28;;;;;;;3.17;1.98;;;41.60;37.00;;;;;;4961868;28;20030;-83
2022/08/03 10:49:54;;;;;;;3.67;2.20;;;41.60;37.50;;;;;;4966717;28;20483;-83
2022/08/03 10:52:20;;;;;;;3.35;2.30;;;41.70;37.30;;;;;;4939623;28;20030;-83
2022/08/03 10:57:48;;;;;;;3.35;2.25;;;42.00;36.50;;;;;;4952936;28;20033;-84
2022/08/03 11:00:25;;;;;;;4.70;2.20;;;42.10;35.40;;;;;;4964668;28;20538;-83
2022/08/03 11:03:02;;;;;;;1.80;1.65;;;42.10;36.00;;;;;;4966841;28;20034;-83
2022/08/03 11:05:29;;;;;;;3.33;2.75;;;42.30;35.30;;;;;;4959267;28;20038;-83
2022/08/03 11:08:25;;;;;;;2.80;2.33;;;42.40;35.90;;;;;;4942100;28;20030;-83
2022/08/03 11:10:54;;;;;;;2.65;2.45;;;42.50;34.40;;;;;;4958812;28;20093;-84
2022/08/03 11:13:23;;;;;;;2.80;2.00;;;42.60;35.20;;;;;;4966352;28;20027;-83
2022/08/03 11:15:52;;;;;;;2.33;2.10;;;42.70;35.00;;;;;;4937100;28;20402;-83
2022/08/03 11:18:18;;;;;;;2.50;2.30;;;42.90;34.40;;;;;;4939018;28;20019;-84
2022/08/03 11:20:48;;;;;;;2.80;2.50;;;42.90;34.40;;;;;;4943648;28;20260;-84
2022/08/03 11:23:16;;;;;;;2.60;2.40;;;43.00;33.60;;;;;;4909978;28;20023;-84
2022/08/03 11:26:10;;;;;;;2.58;2.35;;;43.10;33.70;;;;;;4945005;28;20070;-83
2022/08/03 11:28:39;;;;;;;2.45;2.25;;;43.10;32.60;;;;;;4963325;28;20031;-81
2022/08/03 11:31:32;;;;;;;3.10;2.38;;;43.30;33.40;;;;;;4928399;28;20018;-83
2022/08/03 11:34:09;;;;;;;2.60;2.40;;;43.40;32.40;;;;;;4952599;28;20045;-78
2022/08/03 11:37:12;;;;;;;3.33;2.20;;;43.50;32.30;;;;;;4977983;28;20081;-78
2022/08/03 11:39:46;;;;;;;2.47;2.28;;;43.60;32.90;;;;;;4924131;28;20069;-79
2022/08/03 11:42:21;;;;;;;2.75;2.20;;;43.70;32.20;;;;;;4933490;28;21185;-79
2022/08/03 11:44:47;;;;;;;3.65;2.30;;;43.70;31.10;;;;;;4950972;28;20049;-79
2022/08/03 11:47:16;;;;;;;2.67;2.17;;;43.60;31.40;;;;;;4948425;28;20027;-82
2022/08/03 11:49:50;;;;;;;2.70;2.20;;;43.60;31.50;;;;;;4946759;28;20031;-83
2022/08/03 11:52:17;;;;;;;1.92;1.73;;;43.50;30.90;;;;;;4951996;28;20572;-83
2022/08/03 11:54:43;;;;;;;2.45;2.20;;;43.40;31.30;;;;;;4906367;28;20677;-83
2022/08/03 11:57:09;;;;;;;2.45;2.10;;;43.30;31.40;;;;;;4955449;28;20037;-83
2022/08/03 11:59:36;;;;;;;3.05;2.45;;;43.30;31.60;;;;;;4933490;28;20256;-83
2022/08/03 12:02:15;;;;;;;3.10;2.07;;;43.40;31.60;;;;;;4945316;28;20037;-83
2022/08/03 12:04:57;;;;;;;2.50;2.30;;;43.50;30.00;;;;;;4936036;28;20246;-84
2022/08/03 12:07:23;;;;;;;2.65;2.30;;;43.50;29.90;;;;;;4941478;28;20260;-84
2022/08/03 12:10:12;;;;;;;2.20;2.00;;;43.40;30.60;;;;;;4914449;28;20276;-83
2022/08/03 12:12:38;;;;;;;3.00;2.30;;;43.30;30.10;;;;;;4957755;28;20034;-84
2022/08/03 12:15:05;;;;;;;2.47;2.27;;;43.30;31.10;;;;;;4951643;28;20027;-82
2022/08/03 12:17:35;;;;;;;2.60;2.40;;;43.40;31.10;;;;;;4945337;28;20034;-84
2022/08/03 12:20:01;;;;;;;2.83;2.17;;;43.60;30.60;;;;;;4955238;28;20036;-83
2022/08/03 12:22:36;;;;;;;2.35;2.15;;;43.70;31.30;;;;;;4958919;28;20186;-84
2022/08/03 12:25:03;;;;;;;2.58;2.38;;;43.90;30.80;;;;;;4911252;28;20043;-82
2022/08/03 12:27:29;;;;;;;2.37;2.20;;;44.00;31.50;;;;;;4976693;28;20106;-83
2022/08/03 12:29:56;;;;;;;2.50;2.25;;;44.20;30.00;;;;;;4958245;28;20114;-83
2022/08/03 12:32:22;;;;;;;2.15;1.92;;;44.20;29.80;;;;;;4943125;28;20133;-82
2022/08/03 12:34:49;;;;;;;2.17;1.97;;;44.20;29.90;;;;;;4960815;28;20403;-83
2022/08/03 12:37:22;;;;;;;2.85;2.30;;;44.20;30.00;;;;;;4958315;28;20258;-83
2022/08/03 12:39:52;;;;;;;2.47;2.28;;;44.20;29.80;;;;;;4925571;28;20037;-83
2022/08/03 12:42:18;;;;;;;4.05;2.20;;;44.30;29.70;;;;;;4958877;28;20031;-83
2022/08/03 12:44:49;;;;;;;3.28;2.08;;;44.40;29.90;;;;;;4960653;28;20026;-84
2022/08/03 12:47:15;;;;;;;2.30;2.20;;;44.50;29.70;;;;;;4960424;28;20220;-84
2022/08/03 12:49:45;;;;;;;2.47;2.28;;;44.50;29.60;;;;;;4957850;28;20074;-84
2022/08/03 12:52:11;;;;;;;2.65;2.45;;;44.60;29.30;;;;;;4952237;28;20373;-82
2022/08/03 12:54:37;;;;;;;3.33;2.43;;;44.60;29.80;;;;;;4940269;28;20580;-84
2022/08/03 12:57:05;;;;;;;2.00;1.90;;;44.60;29.30;;;;;;4948305;28;20559;-85
2022/08/03 12:59:35;;;;;;;2.35;2.15;;;44.60;29.20;;;;;;4958372;28;20089;-84
2022/08/03 13:02:01;;;;;;;2.58;2.38;;;44.70;29.20;;;;;;4951427;28;20030;-83
2022/08/03 13:04:33;;;;;;;2.10;2.00;;;44.60;29.00;;;;;;4946417;28;20118;-84
2022/08/03 13:07:05;;;;;;;2.33;2.13;;;44.60;28.70;;;;;;4935691;28;20361;-84